createdAt,value
2022-12-18T00:00:14.219Z,33.20
2022-12-18T00:03:07.683Z,33.50
2022-12-18T00:05:48.952Z,33.10
2022-12-18T00:08:22.678Z,33.30
2022-12-18T00:10:55.662Z,35.90
2022-12-18T00:13:33.741Z,36.70
2022-12-18T00:16:09.182Z,37.20
2022-12-18T00:18:42.232Z,33.70
2022-12-18T00:21:16.384Z,34.50
2022-12-18T00:23:53.713Z,38.90
2022-12-18T00:26:29.393Z,35.80
2022-12-18T00:29:08.133Z,36.80
2022-12-18T00:31:43.805Z,34.70
2022-12-18T00:34:18.056Z,34.00
2022-12-18T00:36:51.872Z,35.80
2022-12-18T00:39:24.169Z,35.80
2022-12-18T00:42:18.390Z,36.00
2022-12-18T00:44:51.279Z,36.90
2022-12-18T00:47:25.330Z,33.50
2022-12-18T00:49:59.752Z,32.90
2022-12-18T00:52:36.803Z,34.00
2022-12-18T00:55:11.356Z,33.50
2022-12-18T00:57:46.285Z,33.40
2022-12-18T01:00:20.078Z,33.50
2022-12-18T01:02:53.305Z,32.60
2022-12-18T01:05:26.343Z,33.80
2022-12-18T01:07:59.763Z,34.50
2022-12-18T01:10:33.078Z,33.50
2022-12-18T01:13:05.447Z,33.90
2022-12-18T01:15:44.672Z,34.50
2022-12-18T01:18:18.664Z,35.60
2022-12-18T01:20:51.378Z,37.70
2022-12-18T01:23:28.032Z,35.40
2022-12-18T01:26:00.429Z,37.40
2022-12-18T01:28:32.537Z,33.60
2022-12-18T01:31:18.209Z,31.40
2022-12-18T01:33:50.510Z,32.10
2022-12-18T01:36:25.415Z,32.20
2022-12-18T01:39:01.083Z,32.20
2022-12-18T01:41:50.551Z,31.00
2022-12-18T01:45:00.946Z,31.90
2022-12-18T01:47:37.496Z,31.50
2022-12-18T01:50:14.355Z,30.60
2022-12-18T01:52:49.367Z,30.30
2022-12-18T01:55:24.838Z,30.50
2022-12-18T01:58:00.945Z,31.60
2022-12-18T02:00:35.379Z,32.60
2022-12-18T02:03:07.845Z,33.80
2022-12-18T02:05:45.944Z,33.80
2022-12-18T02:08:25.886Z,34.60
2022-12-18T02:11:05.968Z,38.80
2022-12-18T02:13:43.344Z,36.10
2022-12-18T02:16:26.407Z,31.60
2022-12-18T02:19:07.865Z,30.70
2022-12-18T02:21:51.697Z,31.40
2022-12-18T02:24:37.291Z,32.20
2022-12-18T02:27:12.185Z,32.70
2022-12-18T02:29:56.001Z,33.30
2022-12-18T02:32:35.907Z,33.00
2022-12-18T02:35:12.685Z,33.70
2022-12-18T02:37:47.264Z,35.10
2022-12-18T02:40:21.158Z,34.20
2022-12-18T02:42:55.162Z,34.00
2022-12-18T02:45:27.716Z,35.30
2022-12-18T02:48:05.409Z,34.60
2022-12-18T02:50:43.713Z,34.50
2022-12-18T02:53:22.897Z,33.70
2022-12-18T02:56:04.328Z,33.80
2022-12-18T02:58:47.098Z,35.10
2022-12-18T03:01:24.314Z,33.60
2022-12-18T03:04:01.423Z,34.00
2022-12-18T03:06:38.813Z,33.40
2022-12-18T03:09:19.019Z,34.60
2022-12-18T03:12:17.501Z,35.40
2022-12-18T03:14:54.056Z,34.60
2022-12-18T03:17:27.788Z,33.70
2022-12-18T03:20:06.035Z,35.40
2022-12-18T03:22:39.133Z,35.80
2022-12-18T03:25:15.615Z,36.90
2022-12-18T03:27:52.171Z,37.70
2022-12-18T03:30:24.833Z,38.80
2022-12-18T03:33:08.265Z,39.40
2022-12-18T03:35:44.784Z,40.50
2022-12-18T03:38:18.088Z,39.60
2022-12-18T03:40:56.351Z,39.80
2022-12-18T03:43:38.418Z,38.00
2022-12-18T03:46:15.426Z,38.10
2022-12-18T03:48:54.948Z,36.80
2022-12-18T03:51:33.305Z,35.60
2022-12-18T03:54:09.321Z,36.60
2022-12-18T03:56:48.935Z,35.40
2022-12-18T03:59:22.898Z,37.00
2022-12-18T04:01:58.117Z,36.90
2022-12-18T04:04:33.877Z,37.20
2022-12-18T04:07:09.628Z,37.20
2022-12-18T04:09:42.775Z,37.00
2022-12-18T04:12:15.965Z,35.50
2022-12-18T04:14:50.752Z,35.10
2022-12-18T04:17:25.342Z,35.80
2022-12-18T04:20:00.078Z,35.80
2022-12-18T04:22:37.910Z,35.30
2022-12-18T04:25:12.484Z,36.20
2022-12-18T04:27:45.576Z,35.90
2022-12-18T04:30:18.330Z,36.40
2022-12-18T04:32:52.329Z,36.70
2022-12-18T04:35:25.360Z,37.60
2022-12-18T04:37:59.313Z,36.50
2022-12-18T04:40:32.473Z,38.50
2022-12-18T04:43:08.491Z,38.70
2022-12-18T04:45:43.404Z,37.40
2022-12-18T04:48:16.837Z,38.50
2022-12-18T04:50:52.183Z,37.20
2022-12-18T04:53:25.809Z,37.60
2022-12-18T04:56:08.686Z,34.80
2022-12-18T04:58:44.765Z,35.90
2022-12-18T05:01:19.051Z,36.40
2022-12-18T05:03:54.242Z,36.10
2022-12-18T05:06:28.307Z,37.80
2022-12-18T05:09:00.937Z,36.60
2022-12-18T05:11:33.628Z,38.10
2022-12-18T05:14:08.530Z,39.40
2022-12-18T05:16:41.179Z,39.00
2022-12-18T05:19:14.311Z,40.30
2022-12-18T05:21:46.912Z,41.50
2022-12-18T05:24:21.435Z,59.40
2022-12-18T05:26:54.618Z,39.90
2022-12-18T05:29:31.068Z,42.20
2022-12-18T05:32:03.299Z,40.50
2022-12-18T05:34:36.524Z,41.20
2022-12-18T05:37:09.768Z,46.00
2022-12-18T05:39:43.151Z,40.10
2022-12-18T05:42:17.229Z,40.00
2022-12-18T05:44:55.231Z,44.90
2022-12-18T05:47:30.300Z,40.60
2022-12-18T05:50:04.214Z,35.80
2022-12-18T05:52:40.168Z,34.30
2022-12-18T05:55:15.273Z,38.70
2022-12-18T05:57:53.640Z,34.90
2022-12-18T06:00:32.144Z,41.40
2022-12-18T06:03:05.327Z,34.50
2022-12-18T06:05:41.620Z,33.80
2022-12-18T06:08:17.356Z,33.60
2022-12-18T06:10:56.002Z,33.90
2022-12-18T06:13:29.856Z,34.00
2022-12-18T06:16:05.200Z,34.10
2022-12-18T06:18:40.734Z,34.50
2022-12-18T06:21:15.639Z,34.60
2022-12-18T06:23:49.921Z,35.20
2022-12-18T06:26:27.649Z,35.90
2022-12-18T06:29:00.262Z,36.20
2022-12-18T06:31:33.189Z,36.80
2022-12-18T06:34:07.752Z,35.80
2022-12-18T06:36:40.961Z,35.00
2022-12-18T06:39:16.284Z,34.90
2022-12-18T06:41:49.483Z,35.90
2022-12-18T06:44:22.379Z,35.70
2022-12-18T06:46:56.112Z,35.70
2022-12-18T06:49:30.844Z,39.90
2022-12-18T06:52:08.393Z,38.20
2022-12-18T06:54:41.306Z,41.10
2022-12-18T06:57:14.169Z,40.90
2022-12-18T06:59:47.801Z,43.70
2022-12-18T07:02:22.999Z,52.80
2022-12-18T07:04:56.736Z,40.90
2022-12-18T07:07:31.238Z,40.50
2022-12-18T07:10:05.715Z,44.90
2022-12-18T07:12:38.834Z,49.40
2022-12-18T07:15:13.131Z,48.10
2022-12-18T07:17:46.172Z,48.30
2022-12-18T07:20:20.906Z,47.40
2022-12-18T07:22:56.362Z,48.40
2022-12-18T07:25:32.488Z,49.90
2022-12-18T07:28:05.271Z,51.60
2022-12-18T07:30:37.745Z,55.50
2022-12-18T07:33:15.518Z,58.10
2022-12-18T07:35:48.464Z,57.20
2022-12-18T07:38:24.181Z,52.90
2022-12-18T07:41:02.653Z,46.90
2022-12-18T07:43:35.511Z,50.00
2022-12-18T07:46:13.187Z,52.40
2022-12-18T07:48:50.016Z,57.10
2022-12-18T07:51:23.764Z,76.60
2022-12-18T07:53:56.606Z,74.00
2022-12-18T07:56:31.736Z,50.90
2022-12-18T07:59:05.690Z,55.70
2022-12-18T08:01:39.310Z,53.90
2022-12-18T08:04:14.738Z,57.40
2022-12-18T08:06:49.148Z,61.70
2022-12-18T08:09:24.730Z,51.40
2022-12-18T08:11:56.829Z,53.90
2022-12-18T08:14:31.334Z,52.30
2022-12-18T08:17:04.335Z,65.30
2022-12-18T08:19:37.169Z,79.90
2022-12-18T08:22:10.256Z,88.00
2022-12-18T08:24:43.339Z,75.10
2022-12-18T08:27:32.491Z,64.80
2022-12-18T08:30:05.262Z,60.70
2022-12-18T08:32:39.812Z,58.30
2022-12-18T08:35:16.457Z,64.40
2022-12-18T08:37:51.651Z,55.60
2022-12-18T08:40:24.452Z,55.20
2022-12-18T08:43:16.704Z,52.20
2022-12-18T08:45:51.642Z,53.70
2022-12-18T08:48:25.202Z,55.80
2022-12-18T08:51:02.834Z,52.90
2022-12-18T08:53:39.628Z,66.10
2022-12-18T08:56:13.062Z,58.60
2022-12-18T08:58:45.735Z,55.50
2022-12-18T09:01:19.212Z,62.40
2022-12-18T09:03:51.990Z,62.70
2022-12-18T09:06:25.633Z,63.50
2022-12-18T09:09:00.855Z,59.10
2022-12-18T09:11:38.002Z,61.70
2022-12-18T09:14:14.497Z,66.20
2022-12-18T09:16:49.573Z,65.70
2022-12-18T09:19:23.294Z,57.50
2022-12-18T09:21:56.563Z,55.80
2022-12-18T09:24:28.739Z,54.60
2022-12-18T09:27:03.318Z,57.40
2022-12-18T09:29:37.095Z,48.00
2022-12-18T09:32:10.366Z,47.90
2022-12-18T09:34:44.915Z,46.60
2022-12-18T09:37:18.364Z,49.00
2022-12-18T09:39:50.430Z,50.70
2022-12-18T09:42:24.484Z,50.30
2022-12-18T09:44:58.514Z,49.70
2022-12-18T09:47:33.585Z,52.00
2022-12-18T09:50:17.548Z,49.70
2022-12-18T09:52:53.403Z,50.90
2022-12-18T09:55:36.590Z,51.20
2022-12-18T09:58:14.865Z,56.00
2022-12-18T10:00:49.272Z,57.10
2022-12-18T10:03:23.817Z,59.40
2022-12-18T10:06:05.161Z,59.30
2022-12-18T10:08:46.001Z,58.90
2022-12-18T10:11:40.075Z,51.20
2022-12-18T10:14:19.664Z,51.60
2022-12-18T10:17:00.634Z,47.50
2022-12-18T10:19:50.155Z,44.40
2022-12-18T10:22:44.564Z,48.40
2022-12-18T10:25:24.781Z,49.40
2022-12-18T10:28:01.244Z,47.50
2022-12-18T10:30:39.748Z,52.30
2022-12-18T10:33:20.956Z,48.10
2022-12-18T10:35:55.874Z,47.10
2022-12-18T10:38:31.120Z,47.40
2022-12-18T10:41:07.262Z,54.40
2022-12-18T10:43:41.889Z,47.50
2022-12-18T10:46:20.069Z,35.90
2022-12-18T10:49:02.505Z,35.60
2022-12-18T10:51:38.968Z,35.10
2022-12-18T10:54:20.293Z,32.20
2022-12-18T10:56:54.222Z,37.40
2022-12-18T10:59:26.217Z,41.00
2022-12-18T11:02:04.595Z,40.40
2022-12-18T11:04:38.773Z,40.10
2022-12-18T11:07:14.595Z,37.70
2022-12-18T11:09:47.920Z,38.60
2022-12-18T11:12:21.704Z,41.70
2022-12-18T11:14:58.785Z,41.30
2022-12-18T11:17:34.524Z,41.40
2022-12-18T11:20:09.794Z,40.20
2022-12-18T11:22:44.269Z,44.10
2022-12-18T11:25:33.170Z,43.70
2022-12-18T11:28:27.700Z,42.10
2022-12-18T11:31:32.505Z,45.50
2022-12-18T11:34:29.215Z,34.60
2022-12-18T11:37:07.059Z,37.10
2022-12-18T11:39:45.195Z,35.40
2022-12-18T11:42:22.947Z,35.80
2022-12-18T11:45:02.091Z,40.30
2022-12-18T11:47:44.250Z,36.90
2022-12-18T11:50:18.608Z,37.10
2022-12-18T11:52:56.514Z,40.80
2022-12-18T11:55:44.492Z,54.20
2022-12-18T11:58:40.049Z,47.90
2022-12-18T12:01:29.912Z,57.00
2022-12-18T12:04:14.873Z,47.10
2022-12-18T12:07:02.934Z,47.50
2022-12-18T12:09:42.773Z,36.70
2022-12-18T12:12:30.559Z,37.10
2022-12-18T12:15:16.038Z,34.10
2022-12-18T12:17:52.611Z,34.70
2022-12-18T12:20:36.022Z,36.50
2022-12-18T12:23:15.477Z,33.50
2022-12-18T12:25:51.694Z,37.00
2022-12-18T12:28:38.286Z,37.90
2022-12-18T12:31:17.716Z,41.70
2022-12-18T12:33:59.568Z,40.00
2022-12-18T12:36:37.256Z,40.30
2022-12-18T12:39:15.484Z,38.80
2022-12-18T12:42:09.828Z,39.80
2022-12-18T12:44:50.125Z,43.20
2022-12-18T12:47:29.236Z,43.00
2022-12-18T12:50:06.195Z,41.20
2022-12-18T12:52:49.993Z,45.10
2022-12-18T12:55:25.592Z,52.40
2022-12-18T12:58:06.507Z,49.70
2022-12-18T13:00:45.960Z,46.70
2022-12-18T13:03:35.208Z,44.40
2022-12-18T13:06:19.428Z,44.70
2022-12-18T13:09:01.250Z,43.30
2022-12-18T13:12:00.397Z,44.40
2022-12-18T13:14:39.685Z,40.00
2022-12-18T13:17:32.074Z,38.10
2022-12-18T13:20:15.899Z,36.70
2022-12-18T13:22:51.296Z,37.20
2022-12-18T13:25:48.533Z,37.00
2022-12-18T13:28:25.612Z,34.60
2022-12-18T13:31:00.052Z,34.60
2022-12-18T13:34:25.096Z,34.40
2022-12-18T13:36:49.421Z,34.70
2022-12-18T13:39:35.869Z,35.10
2022-12-18T13:42:59.240Z,35.30
2022-12-18T13:46:04.265Z,33.10
2022-12-18T13:48:42.621Z,34.70
2022-12-18T13:51:20.757Z,36.00
2022-12-18T13:53:57.464Z,32.70
2022-12-18T13:56:31.909Z,32.80
2022-12-18T13:59:17.364Z,34.50
2022-12-18T14:01:55.134Z,36.30
2022-12-18T14:04:30.529Z,35.80
2022-12-18T14:07:07.628Z,34.90
2022-12-18T14:09:42.740Z,36.20
2022-12-18T14:12:38.421Z,36.80
2022-12-18T14:15:22.857Z,36.90
2022-12-18T14:17:58.445Z,39.70
2022-12-18T14:20:34.190Z,40.20
2022-12-18T14:23:08.104Z,42.50
2022-12-18T14:25:42.150Z,43.80
2022-12-18T14:28:17.979Z,44.60
2022-12-18T14:30:52.449Z,42.70
2022-12-18T14:33:31.625Z,40.60
2022-12-18T14:36:05.643Z,40.90
2022-12-18T14:38:40.320Z,40.30
2022-12-18T14:41:16.472Z,40.90
2022-12-18T14:43:56.282Z,42.50
2022-12-18T14:46:36.822Z,44.00
2022-12-18T14:49:23.702Z,43.40
2022-12-18T14:52:02.077Z,43.10
2022-12-18T14:54:36.154Z,43.20
2022-12-18T14:57:27.674Z,45.20
2022-12-18T15:00:09.684Z,50.00
2022-12-18T15:02:44.282Z,65.60
2022-12-18T15:05:23.074Z,97.70
2022-12-18T15:07:58.469Z,91.60
2022-12-18T15:10:34.472Z,85.40
2022-12-18T15:13:25.539Z,70.30
2022-12-18T15:15:59.387Z,58.50
2022-12-18T15:18:37.683Z,53.50
2022-12-18T15:21:22.343Z,50.80
2022-12-18T15:23:57.865Z,49.10
2022-12-18T15:26:40.792Z,48.20
2022-12-18T15:29:27.042Z,48.90
2022-12-18T15:32:07.986Z,50.10
2022-12-18T15:34:39.858Z,50.30
2022-12-18T15:37:14.515Z,58.40
2022-12-18T15:39:47.369Z,62.10
2022-12-18T15:42:40.383Z,60.30
2022-12-18T15:45:15.673Z,142.70
2022-12-18T15:47:48.542Z,162.30
2022-12-18T15:50:23.032Z,145.60
2022-12-18T15:52:59.233Z,108.90
2022-12-18T15:55:54.237Z,98.10
2022-12-18T15:58:31.173Z,62.40
2022-12-18T16:01:05.248Z,62.00
2022-12-18T16:03:40.301Z,57.20
2022-12-18T16:06:15.303Z,54.20
2022-12-18T16:08:49.893Z,56.10
2022-12-18T16:11:40.805Z,56.20
2022-12-18T16:14:21.570Z,58.10
2022-12-18T16:16:55.580Z,57.90
2022-12-18T16:19:28.076Z,58.70
2022-12-18T16:22:03.896Z,60.40
2022-12-18T16:24:38.453Z,61.20
2022-12-18T16:27:11.400Z,62.30
2022-12-18T16:29:47.606Z,62.10
2022-12-18T16:32:22.023Z,62.40
2022-12-18T16:34:58.709Z,62.00
2022-12-18T16:37:33.013Z,61.90
2022-12-18T16:40:09.962Z,65.90
2022-12-18T16:42:45.522Z,68.90
2022-12-18T16:45:20.586Z,79.90
2022-12-18T16:47:53.908Z,102.40
2022-12-18T16:50:29.111Z,164.10
2022-12-18T16:53:01.017Z,138.40
2022-12-18T16:55:35.802Z,102.40
2022-12-18T16:58:08.250Z,89.90
2022-12-18T17:00:43.141Z,84.40
2022-12-18T17:03:15.925Z,75.70
2022-12-18T17:05:53.297Z,70.60
2022-12-18T17:08:25.577Z,68.40
2022-12-18T17:10:58.124Z,67.10
2022-12-18T17:13:33.467Z,66.00
2022-12-18T17:16:10.308Z,64.90
2022-12-18T17:18:43.515Z,63.20
2022-12-18T17:21:16.912Z,67.10
2022-12-18T17:23:50.888Z,74.60
2022-12-18T17:26:23.280Z,75.40
2022-12-18T17:28:57.613Z,74.80
2022-12-18T17:31:31.724Z,88.80
2022-12-18T17:34:08.002Z,84.90
2022-12-18T17:36:41.467Z,76.60
2022-12-18T17:39:20.505Z,77.70
2022-12-18T17:41:54.414Z,76.60
2022-12-18T17:44:28.423Z,78.60
2022-12-18T17:47:04.528Z,77.60
2022-12-18T17:49:39.226Z,81.60
2022-12-18T17:52:12.951Z,74.90
2022-12-18T17:54:46.956Z,75.70
2022-12-18T17:57:20.314Z,75.60
2022-12-18T17:59:53.775Z,74.50
2022-12-18T18:02:28.084Z,75.70
2022-12-18T18:05:03.947Z,115.80
2022-12-18T18:07:39.558Z,82.70
2022-12-18T18:10:12.583Z,124.90
2022-12-18T18:13:01.915Z,98.30
2022-12-18T18:15:39.999Z,77.60
2022-12-18T18:18:13.135Z,74.10
2022-12-18T18:20:47.348Z,74.60
2022-12-18T18:23:20.139Z,79.60
2022-12-18T18:25:56.721Z,82.10
2022-12-18T18:28:30.317Z,81.70
2022-12-18T18:31:09.213Z,81.50
2022-12-18T18:33:43.313Z,84.20
2022-12-18T18:36:17.124Z,81.90
2022-12-18T18:38:50.775Z,86.00
2022-12-18T18:41:24.696Z,82.40
2022-12-18T18:43:59.393Z,86.70
2022-12-18T18:46:31.756Z,88.50
2022-12-18T18:49:07.012Z,112.80
2022-12-18T18:51:41.812Z,92.40
2022-12-18T18:54:16.159Z,95.60
2022-12-18T18:59:44.838Z,88.30
2022-12-18T19:02:20.660Z,84.20
2022-12-18T19:04:55.758Z,86.80
2022-12-18T19:07:32.082Z,89.60
2022-12-18T19:10:09.720Z,89.70
2022-12-18T19:13:01.148Z,85.00
2022-12-18T19:15:34.287Z,78.60
2022-12-18T19:18:06.453Z,77.70
2022-12-18T19:20:39.499Z,80.70
2022-12-18T19:23:13.605Z,83.50
2022-12-18T19:25:47.328Z,80.10
2022-12-18T19:28:29.336Z,77.00
2022-12-18T19:31:06.433Z,71.70
2022-12-18T19:33:43.520Z,67.70
2022-12-18T19:36:21.923Z,66.00
2022-12-18T19:38:56.788Z,62.00
2022-12-18T19:41:31.303Z,62.00
2022-12-18T19:44:07.957Z,60.40
2022-12-18T19:46:43.908Z,60.20
2022-12-18T19:49:18.138Z,60.70
2022-12-18T19:51:53.833Z,62.90
2022-12-18T19:54:25.924Z,66.60
2022-12-18T19:57:02.636Z,74.60
2022-12-18T19:59:35.989Z,92.30
2022-12-18T20:02:14.835Z,108.90
2022-12-18T20:04:47.344Z,104.50
2022-12-18T20:07:23.568Z,87.50
2022-12-18T20:10:02.753Z,81.20
2022-12-18T20:12:43.432Z,77.50
2022-12-18T20:15:17.726Z,191.50
2022-12-18T20:17:53.543Z,178.60
2022-12-18T20:20:27.421Z,145.70
2022-12-18T20:23:00.889Z,160.00
2022-12-18T20:25:35.591Z,145.20
2022-12-18T20:28:12.129Z,135.50
2022-12-18T20:30:46.729Z,96.60
2022-12-18T20:33:20.375Z,61.30
2022-12-18T20:35:53.568Z,61.40
2022-12-18T20:38:26.948Z,63.20
2022-12-18T20:41:03.616Z,66.70
2022-12-18T20:43:38.268Z,62.70
2022-12-18T20:46:19.126Z,63.70
2022-12-18T20:48:57.516Z,65.30
2022-12-18T20:51:32.704Z,67.60
2022-12-18T20:54:08.000Z,70.10
2022-12-18T20:56:45.222Z,71.00
2022-12-18T20:59:20.973Z,72.60
2022-12-18T21:01:56.042Z,73.30
2022-12-18T21:04:30.219Z,74.30
2022-12-18T21:07:09.183Z,73.60
2022-12-18T21:09:42.961Z,76.70
2022-12-18T21:12:44.004Z,75.40
2022-12-18T21:15:28.701Z,75.90
2022-12-18T21:18:03.329Z,76.20
2022-12-18T21:20:41.228Z,79.90
2022-12-18T21:23:17.105Z,81.20
2022-12-18T21:25:55.512Z,82.10
2022-12-18T21:28:29.338Z,87.60
2022-12-18T21:31:02.158Z,120.50
2022-12-18T21:33:35.930Z,126.80
2022-12-18T21:36:13.639Z,113.40
2022-12-18T21:38:47.681Z,109.10
2022-12-18T21:41:43.625Z,110.00
2022-12-18T21:44:19.455Z,122.80
2022-12-18T21:46:58.965Z,122.00
2022-12-18T21:49:42.011Z,118.30
2022-12-18T21:52:16.803Z,119.20
2022-12-18T21:54:50.589Z,130.20
2022-12-18T21:57:23.819Z,214.00
2022-12-18T21:59:59.787Z,263.40
2022-12-18T22:02:33.746Z,268.60
2022-12-18T22:05:10.468Z,183.20
2022-12-18T22:07:46.774Z,177.10
2022-12-18T22:10:21.871Z,182.10
2022-12-18T22:12:59.422Z,169.20
2022-12-18T22:15:32.489Z,154.20
2022-12-18T22:18:08.581Z,108.20
2022-12-18T22:20:43.312Z,126.30
2022-12-18T22:23:16.492Z,102.30
2022-12-18T22:25:49.906Z,108.60
2022-12-18T22:28:42.854Z,90.00
2022-12-18T22:31:16.173Z,98.80
2022-12-18T22:33:48.522Z,90.20
2022-12-18T22:36:23.178Z,140.20
2022-12-18T22:38:55.832Z,188.00
2022-12-18T22:41:32.356Z,209.80
2022-12-18T22:44:07.010Z,191.20
2022-12-18T22:46:46.342Z,197.90
2022-12-18T22:49:24.204Z,152.40
2022-12-18T22:51:58.135Z,155.00
2022-12-18T22:54:30.823Z,139.90
2022-12-18T22:57:03.673Z,148.00
2022-12-18T22:59:36.514Z,135.30
2022-12-18T23:02:10.198Z,117.40
2022-12-18T23:04:44.414Z,113.00
2022-12-18T23:07:20.501Z,134.80
2022-12-18T23:09:58.412Z,115.20
2022-12-18T23:12:35.828Z,222.70
2022-12-18T23:15:12.122Z,143.20
2022-12-18T23:17:45.543Z,173.80
2022-12-18T23:20:19.577Z,187.30
2022-12-18T23:22:55.067Z,189.00
2022-12-18T23:25:27.462Z,189.50
2022-12-18T23:28:03.369Z,176.40
2022-12-18T23:30:36.940Z,188.50
2022-12-18T23:33:10.524Z,201.50
2022-12-18T23:35:44.497Z,345.90
2022-12-18T23:38:19.870Z,343.50
2022-12-18T23:40:53.048Z,304.60
2022-12-18T23:43:31.937Z,271.40
2022-12-18T23:46:14.056Z,239.80
2022-12-18T23:48:49.945Z,249.00
2022-12-18T23:51:26.950Z,264.90
2022-12-18T23:54:01.064Z,208.70
2022-12-18T23:56:35.730Z,215.30
2022-12-18T23:59:09.503Z,198.70
